createdAt,value
2022-09-20T00:02:21.855Z,9.31
2022-09-20T00:04:49.822Z,9.30
2022-09-20T00:07:16.897Z,9.37
2022-09-20T00:09:43.873Z,9.36
2022-09-20T00:12:10.719Z,9.38
2022-09-20T00:14:37.966Z,9.34
2022-09-20T00:17:05.080Z,9.33
2022-09-20T00:19:32.034Z,9.35
2022-09-20T00:21:59.017Z,9.37
2022-09-20T00:24:26.080Z,9.40
2022-09-20T00:26:53.019Z,9.42
2022-09-20T00:29:20.055Z,9.36
2022-09-20T00:31:47.393Z,9.36
2022-09-20T00:34:32.936Z,9.42
2022-09-20T00:36:59.885Z,9.30
2022-09-20T00:39:27.058Z,9.27
2022-09-20T00:41:54.011Z,9.20
2022-09-20T00:44:41.141Z,9.24
2022-09-20T00:47:15.408Z,9.29
2022-09-20T00:49:42.486Z,9.29
2022-09-20T00:52:10.652Z,9.32
2022-09-20T00:54:37.768Z,9.27
2022-09-20T00:57:04.743Z,9.30
2022-09-20T00:59:38.851Z,9.29
2022-09-20T01:02:13.219Z,9.30
2022-09-20T01:04:41.600Z,9.30
2022-09-20T01:07:11.472Z,9.32
2022-09-20T01:09:38.499Z,9.22
2022-09-20T01:12:07.958Z,9.19
2022-09-20T01:14:35.520Z,9.26
2022-09-20T01:17:04.704Z,9.30
2022-09-20T01:19:31.601Z,9.27
2022-09-20T01:21:59.942Z,9.28
2022-09-20T01:24:44.674Z,9.25
2022-09-20T01:27:48.808Z,9.28
2022-09-20T01:30:20.748Z,9.27
2022-09-20T01:33:08.984Z,9.28
2022-09-20T01:35:36.978Z,9.31
2022-09-20T01:38:39.204Z,9.28
2022-09-20T01:41:24.731Z,9.25
2022-09-20T01:43:54.171Z,9.30
2022-09-20T01:46:31.713Z,9.27
2022-09-20T01:49:25.008Z,9.29
2022-09-20T01:52:07.165Z,9.22
2022-09-20T01:54:52.423Z,9.21
2022-09-20T01:57:50.462Z,9.21
2022-09-20T02:00:26.597Z,9.15
2022-09-20T02:03:18.175Z,9.11
2022-09-20T02:05:57.067Z,9.05
2022-09-20T02:08:58.217Z,9.11
2022-09-20T02:12:06.697Z,9.05
2022-09-20T02:15:04.097Z,9.09
2022-09-20T02:17:38.850Z,9.09
2022-09-20T02:20:20.782Z,9.15
2022-09-20T02:23:12.626Z,9.20
2022-09-20T02:25:49.778Z,9.18
2022-09-20T02:28:51.739Z,9.18
2022-09-20T02:31:36.869Z,9.17
2022-09-20T02:34:03.639Z,9.12
2022-09-20T02:37:18.865Z,9.17
2022-09-20T02:39:59.302Z,9.20
2022-09-20T02:42:38.968Z,9.20
2022-09-20T02:45:10.101Z,9.21
2022-09-20T02:47:41.408Z,9.20
2022-09-20T02:50:32.146Z,9.18
2022-09-20T02:53:31.467Z,9.05
2022-09-20T02:56:04.960Z,8.98
2022-09-20T02:58:46.785Z,9.07
2022-09-20T03:01:31.387Z,8.94
2022-09-20T03:04:21.475Z,8.87
2022-09-20T03:07:24.553Z,8.98
2022-09-20T03:10:21.587Z,9.09
2022-09-20T03:13:23.099Z,9.08
2022-09-20T03:16:05.654Z,9.10
2022-09-20T03:18:45.014Z,9.14
2022-09-20T03:21:42.741Z,9.15
2022-09-20T03:24:20.023Z,9.19
2022-09-20T03:27:25.379Z,9.17
2022-09-20T03:30:26.355Z,9.20
2022-09-20T03:33:08.512Z,9.26
2022-09-20T03:35:53.904Z,9.26
2022-09-20T03:38:32.703Z,9.26
2022-09-20T03:41:15.454Z,9.29
2022-09-20T03:43:52.975Z,9.31
2022-09-20T03:46:22.713Z,9.32
2022-09-20T03:48:49.714Z,9.32
2022-09-20T03:51:35.523Z,9.38
2022-09-20T03:54:11.291Z,9.37
2022-09-20T03:57:07.860Z,9.37
2022-09-20T03:59:40.421Z,9.40
2022-09-20T04:02:35.227Z,9.43
2022-09-20T04:05:07.848Z,9.43
2022-09-20T04:07:53.179Z,9.45
2022-09-20T04:10:41.875Z,9.48
2022-09-20T04:13:27.434Z,9.50
2022-09-20T04:16:23.605Z,9.53
2022-09-20T04:19:16.489Z,9.57
2022-09-20T04:21:57.119Z,9.60
2022-09-20T04:24:30.188Z,9.59
2022-09-20T04:27:24.487Z,9.63
2022-09-20T04:29:58.431Z,9.65
2022-09-20T04:32:31.151Z,9.67
2022-09-20T04:35:41.398Z,9.76
2022-09-20T04:38:12.785Z,9.79
2022-09-20T04:41:00.639Z,9.88
2022-09-20T04:43:36.515Z,9.83
2022-09-20T04:46:44.804Z,9.80
2022-09-20T04:49:19.165Z,9.77
2022-09-20T04:51:55.119Z,9.84
2022-09-20T04:54:37.182Z,9.86
2022-09-20T04:57:26.408Z,9.90
2022-09-20T05:00:16.280Z,9.93
2022-09-20T05:02:58.534Z,9.96
2022-09-20T05:05:50.796Z,9.93
2022-09-20T05:08:45.221Z,9.99
2022-09-20T05:11:25.822Z,10.09
2022-09-20T05:17:12.215Z,10.07
2022-09-20T05:19:51.031Z,10.08
2022-09-20T05:22:53.213Z,10.03
2022-09-20T05:25:23.281Z,10.04
2022-09-20T05:27:57.450Z,9.97
2022-09-20T05:30:33.797Z,9.97
2022-09-20T05:34:03.301Z,10.07
2022-09-20T05:36:48.892Z,10.20
2022-09-20T05:39:34.168Z,10.27
2022-09-20T05:42:10.128Z,10.33
2022-09-20T05:45:14.419Z,10.20
2022-09-20T05:48:01.942Z,10.13
2022-09-20T05:51:03.817Z,10.22
2022-09-20T05:53:58.477Z,10.24
2022-09-20T05:56:52.946Z,10.26
2022-09-20T05:59:22.726Z,10.17
2022-09-20T06:02:00.956Z,10.12
2022-09-20T06:04:39.729Z,10.11
2022-09-20T06:07:06.626Z,10.10
2022-09-20T06:09:48.847Z,10.11
2022-09-20T06:12:35.816Z,10.16
2022-09-20T06:15:26.549Z,10.31
2022-09-20T06:18:17.567Z,10.36
2022-09-20T06:21:05.344Z,10.56
2022-09-20T06:23:32.580Z,10.96
2022-09-20T06:26:07.965Z,10.96
2022-09-20T06:28:44.352Z,11.02
2022-09-20T06:31:11.399Z,11.28
2022-09-20T06:33:56.812Z,11.48
2022-09-20T06:36:47.936Z,11.39
2022-09-20T06:40:11.358Z,11.48
2022-09-20T06:42:39.250Z,11.59
2022-09-20T06:45:06.711Z,11.56
2022-09-20T06:47:38.029Z,11.53
2022-09-20T06:50:06.427Z,11.59
2022-09-20T06:52:34.665Z,11.55
2022-09-20T06:55:08.972Z,11.55
2022-09-20T06:57:37.968Z,11.61
2022-09-20T07:00:07.016Z,11.52
2022-09-20T07:02:33.969Z,11.41
2022-09-20T07:05:00.942Z,11.47
2022-09-20T07:07:28.320Z,11.53
2022-09-20T07:09:55.250Z,11.47
2022-09-20T07:12:22.185Z,11.45
2022-09-20T07:14:50.718Z,11.47
2022-09-20T07:17:17.777Z,11.43
2022-09-20T07:19:44.650Z,11.41
2022-09-20T07:22:11.561Z,11.44
2022-09-20T07:24:39.195Z,11.58
2022-09-20T07:27:09.599Z,11.69
2022-09-20T07:29:37.623Z,11.74
2022-09-20T07:32:04.633Z,11.82
2022-09-20T07:34:32.186Z,11.93
2022-09-20T07:37:00.029Z,12.04
2022-09-20T07:39:27.452Z,12.03
2022-09-20T07:41:54.343Z,12.18
2022-09-20T07:44:21.656Z,12.28
2022-09-20T07:46:52.959Z,12.23
2022-09-20T07:49:21.530Z,12.27
2022-09-20T07:51:49.984Z,12.29
2022-09-20T07:54:17.391Z,12.25
2022-09-20T07:56:45.111Z,12.29
2022-09-20T07:59:14.003Z,12.31
2022-09-20T08:01:44.220Z,12.35
2022-09-20T08:04:13.159Z,12.54
2022-09-20T08:06:45.025Z,13.29
2022-09-20T08:09:13.607Z,13.20
2022-09-20T08:11:42.927Z,13.37
2022-09-20T08:14:15.784Z,13.81
2022-09-20T08:16:46.621Z,13.37
2022-09-20T08:19:19.463Z,12.92
2022-09-20T08:21:46.944Z,12.62
2022-09-20T08:24:16.711Z,12.53
2022-09-20T08:26:46.676Z,12.63
2022-09-20T08:29:15.189Z,12.73
2022-09-20T08:31:42.864Z,12.84
2022-09-20T08:34:13.794Z,12.82
2022-09-20T08:36:50.967Z,12.75
2022-09-20T08:42:15.770Z,12.85
2022-09-20T08:44:58.109Z,12.92
2022-09-20T08:47:29.655Z,13.21
2022-09-20T08:49:59.414Z,13.41
2022-09-20T08:52:37.505Z,13.51
2022-09-20T08:55:17.790Z,13.70
2022-09-20T08:57:49.349Z,14.15
2022-09-20T09:00:19.279Z,15.53
2022-09-20T09:02:51.502Z,15.37
2022-09-20T09:05:37.418Z,14.42
2022-09-20T09:08:10.617Z,13.61
2022-09-20T09:10:46.110Z,13.33
2022-09-20T09:13:23.000Z,13.06
2022-09-20T09:15:57.431Z,12.99
2022-09-20T09:18:33.274Z,13.09
2022-09-20T09:21:04.371Z,14.85
2022-09-20T09:23:41.493Z,15.14
2022-09-20T09:26:17.854Z,13.62
2022-09-20T09:28:45.012Z,12.93
2022-09-20T09:31:30.424Z,13.15
2022-09-20T09:33:59.181Z,14.82
2022-09-20T09:36:27.278Z,15.26
2022-09-20T09:39:27.332Z,15.55
2022-09-20T09:42:02.490Z,15.90
2022-09-20T09:44:34.055Z,16.61
2022-09-20T09:47:02.398Z,15.87
2022-09-20T09:49:35.332Z,16.50
2022-09-20T09:52:15.951Z,16.10
2022-09-20T09:54:50.747Z,17.87
2022-09-20T09:57:30.681Z,16.87
2022-09-20T10:00:19.760Z,18.07
2022-09-20T10:03:13.041Z,16.98
2022-09-20T10:06:04.763Z,15.36
2022-09-20T10:08:51.183Z,14.79
2022-09-20T10:11:18.125Z,14.43
2022-09-20T10:14:06.506Z,14.50
2022-09-20T10:16:52.035Z,14.47
2022-09-20T10:19:27.888Z,14.66
2022-09-20T10:22:11.411Z,16.82
2022-09-20T10:25:06.753Z,16.60
2022-09-20T10:28:03.008Z,16.24
2022-09-20T10:31:10.472Z,17.47
2022-09-20T10:33:56.282Z,16.04
2022-09-20T10:36:38.100Z,15.35
2022-09-20T10:39:22.899Z,14.55
2022-09-20T10:42:48.453Z,14.07
2022-09-20T10:45:50.816Z,14.19
2022-09-20T10:48:49.256Z,14.90
2022-09-20T10:51:53.118Z,14.72
2022-09-20T10:54:41.822Z,14.40
2022-09-20T10:57:37.796Z,14.48
2022-09-20T11:00:42.315Z,13.98
2022-09-20T11:03:26.282Z,13.69
2022-09-20T11:06:12.446Z,14.14
2022-09-20T11:08:40.335Z,16.53
2022-09-20T11:11:19.908Z,17.28
2022-09-20T11:14:04.051Z,17.78
2022-09-20T11:16:39.246Z,18.39
2022-09-20T11:19:31.480Z,18.95
2022-09-20T11:22:09.388Z,19.19
2022-09-20T11:24:43.539Z,19.58
2022-09-20T11:27:36.071Z,18.97
2022-09-20T11:30:08.437Z,19.85
2022-09-20T11:33:07.636Z,19.39
2022-09-20T11:35:38.949Z,18.91
2022-09-20T11:38:29.480Z,16.89
2022-09-20T11:41:02.916Z,14.94
2022-09-20T11:43:31.270Z,14.13
2022-09-20T11:46:10.160Z,13.92
2022-09-20T11:48:46.674Z,13.57
2022-09-20T11:51:16.817Z,13.15
2022-09-20T11:54:11.216Z,13.25
2022-09-20T11:56:39.116Z,13.60
2022-09-20T11:59:16.627Z,14.88
2022-09-20T12:01:43.903Z,16.21
2022-09-20T12:04:34.742Z,17.09
2022-09-20T12:07:36.274Z,15.29
2022-09-20T12:10:10.040Z,14.38
2022-09-20T12:12:44.208Z,15.02
2022-09-20T12:15:34.157Z,16.13
2022-09-20T12:18:09.209Z,17.97
2022-09-20T12:20:58.221Z,19.21
2022-09-20T12:23:43.455Z,19.66
2022-09-20T12:26:21.692Z,20.29
2022-09-20T12:28:50.480Z,19.56
2022-09-20T12:31:31.987Z,19.17
2022-09-20T12:34:12.351Z,19.36
2022-09-20T12:37:05.162Z,19.61
2022-09-20T12:39:37.035Z,19.16
2022-09-20T12:42:23.893Z,19.18
2022-09-20T12:44:51.987Z,18.06
2022-09-20T12:47:25.138Z,19.35
2022-09-20T12:50:12.985Z,18.91
2022-09-20T12:52:58.127Z,19.47
2022-09-20T12:55:40.184Z,20.25
2022-09-20T12:58:16.148Z,20.31
2022-09-20T13:01:00.940Z,17.63
2022-09-20T13:03:28.841Z,18.08
2022-09-20T13:06:14.863Z,19.18
2022-09-20T13:08:57.343Z,18.59
2022-09-20T13:11:46.494Z,16.89
2022-09-20T13:14:19.031Z,16.57
2022-09-20T13:16:55.240Z,16.55
2022-09-20T13:19:30.758Z,15.61
2022-09-20T13:22:00.918Z,15.40
2022-09-20T13:24:32.437Z,15.38
2022-09-20T13:27:06.657Z,15.19
2022-09-20T13:29:41.352Z,14.52
2022-09-20T13:32:28.781Z,14.13
2022-09-20T13:35:16.944Z,14.05
2022-09-20T13:37:59.887Z,13.92
2022-09-20T13:40:38.668Z,14.35
2022-09-20T13:43:23.740Z,16.07
2022-09-20T13:45:59.881Z,17.67
2022-09-20T13:48:28.627Z,18.95
2022-09-20T13:50:56.748Z,18.72
2022-09-20T13:53:42.391Z,18.02
2022-09-20T13:56:14.743Z,16.99
2022-09-20T13:58:42.628Z,16.80
2022-09-20T14:01:24.817Z,15.48
2022-09-20T14:03:53.486Z,14.62
2022-09-20T14:06:27.175Z,14.18
2022-09-20T14:08:54.394Z,13.83
2022-09-20T14:11:22.288Z,13.73
2022-09-20T14:13:52.317Z,14.26
2022-09-20T14:16:21.025Z,14.65
2022-09-20T14:18:49.824Z,15.57
2022-09-20T14:21:28.092Z,16.42
2022-09-20T14:24:02.933Z,17.86
2022-09-20T14:26:37.767Z,18.63
2022-09-20T14:29:40.031Z,19.31
2022-09-20T14:32:10.778Z,17.95
2022-09-20T14:34:41.525Z,15.73
2022-09-20T14:37:22.517Z,16.22
2022-09-20T14:39:53.367Z,16.32
2022-09-20T14:42:22.521Z,15.76
2022-09-20T14:44:53.231Z,15.04
2022-09-20T14:47:47.588Z,14.54
2022-09-20T14:50:25.236Z,14.07
2022-09-20T14:53:13.347Z,13.90
2022-09-20T14:56:03.384Z,13.64
2022-09-20T14:58:34.180Z,13.25
2022-09-20T15:01:23.642Z,13.05
2022-09-20T15:03:52.478Z,12.76
2022-09-20T15:06:19.795Z,12.48
2022-09-20T15:08:47.220Z,12.39
2022-09-20T15:11:18.937Z,12.24
2022-09-20T15:13:49.001Z,12.08
2022-09-20T15:16:18.276Z,11.91
2022-09-20T15:18:45.521Z,11.78
2022-09-20T15:21:13.147Z,11.62
2022-09-20T15:23:40.978Z,11.48
2022-09-20T15:26:10.238Z,11.39
2022-09-20T15:28:37.389Z,11.28
2022-09-20T15:31:07.558Z,11.20
2022-09-20T15:33:34.525Z,11.13
2022-09-20T15:36:02.486Z,11.05
2022-09-20T15:38:29.491Z,10.99
2022-09-20T15:40:56.928Z,10.95
2022-09-20T15:43:28.309Z,10.85
2022-09-20T15:45:57.892Z,10.79
2022-09-20T15:48:27.147Z,10.78
2022-09-20T15:51:06.841Z,10.69
2022-09-20T15:53:44.782Z,10.58
2022-09-20T15:56:16.751Z,10.51
2022-09-20T15:58:47.419Z,10.44
2022-09-20T16:01:18.266Z,10.44
2022-09-20T16:03:46.497Z,10.40
2022-09-20T16:06:16.316Z,10.36
2022-09-20T16:08:43.879Z,10.36
2022-09-20T16:11:13.569Z,10.33
2022-09-20T16:13:43.543Z,10.20
2022-09-20T16:16:13.502Z,10.14
2022-09-20T16:18:59.197Z,10.11
2022-09-20T16:21:27.748Z,10.06
2022-09-20T16:23:56.641Z,10.09
2022-09-20T16:26:25.736Z,10.08
2022-09-20T16:28:57.922Z,10.02
2022-09-20T16:31:37.414Z,10.02
2022-09-20T16:34:12.653Z,9.97
2022-09-20T16:36:43.862Z,9.97
2022-09-20T16:39:12.353Z,9.91
2022-09-20T16:41:40.800Z,9.86
2022-09-20T16:44:08.467Z,9.82
2022-09-20T16:46:37.226Z,9.79
2022-09-20T16:49:07.420Z,9.75
2022-09-20T16:51:43.040Z,9.75
2022-09-20T16:54:12.737Z,9.70
2022-09-20T16:56:45.368Z,9.60
2022-09-20T16:59:14.083Z,9.49
2022-09-20T17:01:41.412Z,9.43
2022-09-20T17:04:09.069Z,9.35
2022-09-20T17:06:37.692Z,9.32
2022-09-20T17:09:11.113Z,9.28
2022-09-20T17:11:41.911Z,9.24
2022-09-20T17:14:17.404Z,9.15
2022-09-20T17:16:48.237Z,9.17
2022-09-20T17:19:23.104Z,9.15
2022-09-20T17:21:53.010Z,9.10
2022-09-20T17:24:21.776Z,9.07
2022-09-20T17:26:50.474Z,9.05
2022-09-20T17:29:20.818Z,9.03
2022-09-20T17:31:54.941Z,8.99
2022-09-20T17:34:26.571Z,8.94
2022-09-20T17:36:56.730Z,8.90
2022-09-20T17:39:24.117Z,8.85
2022-09-20T17:41:51.278Z,8.83
2022-09-20T17:44:18.815Z,8.80
2022-09-20T17:46:51.855Z,8.81
2022-09-20T17:49:21.828Z,8.80
2022-09-20T17:51:56.730Z,8.79
2022-09-20T17:54:24.728Z,8.76
2022-09-20T17:56:53.557Z,8.78
2022-09-20T17:59:20.998Z,8.76
2022-09-20T18:01:50.226Z,8.68
2022-09-20T18:04:18.783Z,8.63
2022-09-20T18:06:50.520Z,8.54
2022-09-20T18:09:19.799Z,8.60
2022-09-20T18:11:51.591Z,8.54
2022-09-20T18:14:24.740Z,8.48
2022-09-20T18:16:53.204Z,8.45
2022-09-20T18:19:25.149Z,8.41
2022-09-20T18:21:52.492Z,8.39
2022-09-20T18:24:19.809Z,8.32
2022-09-20T18:26:47.811Z,8.34
2022-09-20T18:29:18.242Z,8.28
2022-09-20T18:31:51.005Z,8.22
2022-09-20T18:34:23.866Z,8.21
2022-09-20T18:36:54.751Z,8.18
2022-09-20T18:39:23.572Z,8.19
2022-09-20T18:41:53.352Z,8.25
2022-09-20T18:44:22.753Z,8.24
2022-09-20T18:47:03.848Z,8.20
2022-09-20T18:49:32.256Z,8.16
2022-09-20T18:52:00.161Z,8.14
2022-09-20T18:54:32.331Z,8.08
2022-09-20T18:57:00.484Z,8.13
2022-09-20T18:59:29.672Z,8.15
2022-09-20T19:01:57.247Z,8.13
2022-09-20T19:04:55.063Z,8.09
2022-09-20T19:07:28.741Z,8.04
2022-09-20T19:10:38.186Z,8.03
2022-09-20T19:13:43.306Z,7.92
2022-09-20T19:16:20.833Z,7.85
2022-09-20T19:18:59.066Z,7.80
2022-09-20T19:21:38.453Z,7.74
2022-09-20T19:24:39.908Z,7.74
2022-09-20T19:27:11.578Z,7.64
2022-09-20T19:29:39.785Z,7.56
2022-09-20T19:32:13.918Z,7.52
2022-09-20T19:34:43.656Z,7.43
2022-09-20T19:37:19.223Z,7.36
2022-09-20T19:40:09.161Z,7.35
2022-09-20T19:43:09.380Z,7.29
2022-09-20T19:45:48.716Z,7.19
2022-09-20T19:48:29.917Z,7.14
2022-09-20T19:50:58.772Z,7.13
2022-09-20T19:53:28.432Z,7.13
2022-09-20T19:56:01.894Z,7.13
2022-09-20T19:58:29.520Z,7.10
2022-09-20T20:00:58.377Z,7.09
2022-09-20T20:03:27.796Z,7.09
2022-09-20T20:06:07.090Z,7.13
2022-09-20T20:08:51.057Z,7.09
2022-09-20T20:11:29.179Z,7.11
2022-09-20T20:14:16.953Z,7.14
2022-09-20T20:17:01.308Z,7.11
2022-09-20T20:19:49.357Z,6.99
2022-09-20T20:22:40.961Z,6.89
2022-09-20T20:25:22.014Z,6.92
2022-09-20T20:27:49.102Z,6.95
2022-09-20T20:30:16.968Z,6.98
2022-09-20T20:32:47.802Z,6.85
2022-09-20T20:35:15.134Z,6.94
2022-09-20T20:37:42.671Z,6.93
2022-09-20T20:40:15.044Z,6.87
2022-09-20T20:42:44.047Z,6.83
2022-09-20T20:45:14.031Z,6.78
2022-09-20T20:47:43.497Z,6.74
2022-09-20T20:50:13.129Z,6.67
2022-09-20T20:52:40.254Z,6.66
2022-09-20T20:55:07.860Z,6.64
2022-09-20T20:57:38.412Z,6.62
2022-09-20T21:00:06.894Z,6.60
2022-09-20T21:02:34.991Z,6.55
2022-09-20T21:05:01.977Z,6.55
2022-09-20T21:07:31.315Z,6.57
2022-09-20T21:09:58.822Z,6.57
2022-09-20T21:12:26.952Z,6.51
2022-09-20T21:14:54.222Z,6.53
2022-09-20T21:17:21.295Z,6.50
2022-09-20T21:19:48.405Z,6.43
2022-09-20T21:22:15.347Z,6.46
2022-09-20T21:24:42.453Z,6.53
2022-09-20T21:27:09.612Z,6.54
2022-09-20T21:29:36.970Z,6.59
2022-09-20T21:32:04.180Z,6.49
2022-09-20T21:34:31.294Z,6.44
2022-09-20T21:36:58.459Z,6.45
2022-09-20T21:39:25.429Z,6.43
2022-09-20T21:41:52.514Z,6.44
2022-09-20T21:44:20.669Z,6.42
2022-09-20T21:46:48.595Z,6.43
2022-09-20T21:49:15.847Z,6.41
2022-09-20T21:51:43.123Z,6.41
2022-09-20T21:54:11.097Z,6.35
2022-09-20T21:56:39.307Z,6.34
2022-09-20T21:59:07.899Z,6.31
2022-09-20T22:01:40.434Z,6.28
2022-09-20T22:04:11.710Z,6.29
2022-09-20T22:06:43.519Z,6.27
2022-09-20T22:09:17.802Z,6.23
2022-09-20T22:11:48.823Z,6.25
2022-09-20T22:14:18.331Z,6.25
2022-09-20T22:16:46.236Z,6.21
2022-09-20T22:19:15.086Z,6.17
2022-09-20T22:21:44.540Z,6.16
2022-09-20T22:24:13.687Z,6.13
2022-09-20T22:26:49.099Z,6.12
2022-09-20T22:29:16.274Z,6.15
2022-09-20T22:31:45.672Z,6.16
2022-09-20T22:34:18.549Z,6.15
2022-09-20T22:36:45.986Z,6.13
2022-09-20T22:39:13.533Z,6.15
2022-09-20T22:41:41.636Z,6.14
2022-09-20T22:44:09.210Z,6.10
2022-09-20T22:46:36.649Z,6.04
2022-09-20T22:49:08.169Z,5.99
2022-09-20T22:51:35.714Z,5.82
2022-09-20T22:54:07.753Z,5.73
2022-09-20T22:56:35.433Z,5.64
2022-09-20T22:59:06.548Z,5.57
2022-09-20T23:01:35.939Z,5.54
2022-09-20T23:04:07.888Z,5.55
2022-09-20T23:06:42.179Z,5.53
2022-09-20T23:09:11.858Z,5.54
2022-09-20T23:11:39.994Z,5.52
2022-09-20T23:14:06.904Z,5.52
2022-09-20T23:16:35.881Z,5.49
2022-09-20T23:19:04.718Z,5.46
2022-09-20T23:21:32.610Z,5.42
2022-09-20T23:24:02.121Z,5.39
2022-09-20T23:26:30.990Z,5.39
2022-09-20T23:29:03.078Z,5.39
2022-09-20T23:31:32.063Z,5.41
2022-09-20T23:34:01.165Z,5.42
2022-09-20T23:36:32.953Z,5.41
2022-09-20T23:39:00.079Z,5.39
2022-09-20T23:41:28.376Z,5.49
2022-09-20T23:43:57.714Z,5.56
2022-09-20T23:46:26.491Z,5.60
2022-09-20T23:48:53.978Z,5.66
2022-09-20T23:51:23.747Z,5.59
2022-09-20T23:53:51.594Z,5.55
2022-09-20T23:56:19.127Z,5.54
2022-09-20T23:58:46.537Z,5.54
